Time;durP1;ratioP1;P1;durP2;ratioP2;P2;SDS_P1;SDS_P2;PMS_P1;PMS_P2;Temp;Humidity;BMP_temperature;BMP_pressure;BME280_temperature;BME280_humidity;BME280_pressure;Samples;Min_cycle;Max_cycle;Signal;HPM_P1;HPM_P2
2021/08/19 00:00:09;;;;;;;0.10;0.10;;;;;;;18.83;95.53;99112.63;6153977;23;20064;-84
2021/08/19 00:02:35;;;;;;;0.10;0.10;;;;;;;18.79;95.53;99117.72;6152922;23;20044;-83
2021/08/19 00:05:01;;;;;;;0.10;0.10;;;;;;;18.78;95.84;99116.00;6151753;23;20025;-85
2021/08/19 00:07:26;;;;;;;0.10;0.10;;;;;;;18.75;96.19;99121.91;6154284;23;20017;-83
2021/08/19 00:09:54;;;;;;;0.10;0.10;;;;;;;18.71;96.06;99125.31;6151269;23;20160;-83
2021/08/19 00:12:20;;;;;;;0.10;0.10;;;;;;;18.70;96.05;99123.59;6151434;23;20084;-83
2021/08/19 00:14:46;;;;;;;0.10;0.10;;;;;;;18.70;95.82;99118.13;6127096;23;20134;-82
2021/08/19 00:17:13;;;;;;;0.10;0.10;;;;;;;18.71;95.81;99122.56;6152332;23;20493;-84
2021/08/19 00:19:39;;;;;;;0.10;0.10;;;;;;;18.72;95.50;99116.03;6128604;23;20021;-83
2021/08/19 00:22:05;;;;;;;0.10;0.10;;;;;;;18.73;95.25;99123.22;6154193;23;20021;-83
2021/08/19 00:24:32;;;;;;;0.10;0.10;;;;;;;18.71;95.03;99114.34;6127504;23;20608;-82
2021/08/19 00:27:03;;;;;;;0.10;0.10;;;;;;;18.73;95.01;99128.69;6153622;23;20064;-83
2021/08/19 00:29:29;;;;;;;0.10;0.10;;;;;;;18.72;94.73;99132.47;6153117;23;20037;-82
2021/08/19 00:31:55;;;;;;;0.10;0.10;;;;;;;18.84;94.70;99130.75;6152539;23;20032;-86
2021/08/19 00:34:21;;;;;;;0.10;0.10;;;;;;;18.87;94.32;99124.00;6128255;23;20132;-83
2021/08/19 00:36:47;;;;;;;0.10;0.10;;;;;;;18.84;93.80;99122.53;6152884;23;20021;-83
2021/08/19 00:39:12;;;;;;;0.10;0.10;;;;;;;18.88;93.84;99121.03;6157810;23;20024;-86
2021/08/19 00:41:38;;;;;;;0.10;0.10;;;;;;;18.84;94.35;99119.78;6152478;23;20137;-85
2021/08/19 00:44:05;;;;;;;0.10;0.10;;;;;;;18.87;94.22;99115.78;6152431;23;20017;-83
2021/08/19 00:46:32;;;;;;;0.10;0.10;;;;;;;18.89;93.76;99116.38;6152176;23;20045;-83
2021/08/19 00:49:00;;;;;;;0.10;0.10;;;;;;;18.85;93.41;99113.25;6154520;23;20104;-83
2021/08/19 00:51:28;;;;;;;0.10;0.10;;;;;;;18.86;92.77;99114.06;6112668;23;20036;-83
2021/08/19 00:53:55;;;;;;;0.10;0.10;;;;;;;18.90;92.67;99110.66;6154612;23;20028;-85
2021/08/19 00:56:21;;;;;;;0.10;0.10;;;;;;;18.88;92.95;99115.53;6153433;23;20021;-81
2021/08/19 00:58:47;;;;;;;0.10;0.10;;;;;;;18.92;92.61;99110.47;6157168;23;20072;-84
2021/08/19 01:01:13;;;;;;;0.10;0.10;;;;;;;18.94;92.50;99103.72;6154480;23;20104;-82
2021/08/19 01:03:38;;;;;;;0.10;0.10;;;;;;;18.92;92.51;99111.31;6154227;23;20286;-82
2021/08/19 01:06:04;;;;;;;0.10;0.10;;;;;;;18.87;92.38;99113.88;6128799;23;20018;-85
2021/08/19 01:08:33;;;;;;;0.10;0.10;;;;;;;18.86;93.02;99117.66;6151913;23;20104;-83
2021/08/19 01:10:59;;;;;;;0.10;0.10;;;;;;;18.90;92.45;99113.41;6152510;23;20021;-83
2021/08/19 01:13:25;;;;;;;0.10;0.10;;;;;;;18.88;92.30;99112.81;6152363;23;20108;-82
2021/08/19 01:15:50;;;;;;;0.10;0.10;;;;;;;18.88;92.38;99109.22;6152018;23;20021;-83
2021/08/19 01:18:16;;;;;;;0.10;0.10;;;;;;;18.86;92.31;99103.97;6152021;23;20104;-83
2021/08/19 01:20:42;;;;;;;0.10;0.10;;;;;;;18.88;92.33;99103.75;6153274;23;20017;-84
2021/08/19 01:23:08;;;;;;;0.10;0.10;;;;;;;18.89;92.29;99103.53;6151388;23;20116;-82
2021/08/19 01:25:33;;;;;;;0.10;0.10;;;;;;;18.86;92.71;99095.75;6153072;23;20010;-84
2021/08/19 01:27:59;;;;;;;0.10;0.10;;;;;;;18.85;92.68;99098.72;6126577;23;20017;-84
2021/08/19 01:30:26;;;;;;;0.10;0.10;;;;;;;18.84;93.13;99092.41;6150876;23;20073;-83
2021/08/19 01:32:53;;;;;;;0.10;0.10;;;;;;;18.79;93.40;99097.66;6151095;23;20064;-84
2021/08/19 01:35:22;;;;;;;0.10;0.10;;;;;;;18.79;93.50;99105.88;6152087;23;20067;-86
2021/08/19 01:37:48;;;;;;;0.10;0.10;;;;;;;18.75;93.93;99093.69;6152665;23;20097;-82
2021/08/19 01:40:16;;;;;;;0.10;0.10;;;;;;;18.78;93.42;99098.72;6127166;23;20032;-87
2021/08/19 01:42:46;;;;;;;0.10;0.10;;;;;;;18.74;93.65;99097.50;6154711;23;20066;-82
2021/08/19 01:45:18;;;;;;;0.10;0.10;;;;;;;18.68;93.89;99098.31;6153074;23;20037;-83
2021/08/19 01:47:44;;;;;;;0.10;0.10;;;;;;;18.70;93.75;99107.16;6152559;23;20024;-84
2021/08/19 01:50:10;;;;;;;0.10;0.10;;;;;;;18.74;94.09;99100.22;6152010;23;20103;-86
2021/08/19 01:52:36;;;;;;;0.10;0.10;;;;;;;18.70;94.45;99112.66;6127222;23;20021;-83
2021/08/19 01:55:02;;;;;;;0.10;0.10;;;;;;;18.67;94.05;99107.59;6153947;23;20506;-85
2021/08/19 01:57:30;;;;;;;0.10;0.10;;;;;;;18.65;94.25;99109.69;6103049;23;20017;-83
2021/08/19 01:59:56;;;;;;;0.10;0.10;;;;;;;18.61;94.38;99113.94;6153010;23;20027;-82
2021/08/19 02:02:22;;;;;;;0.10;0.10;;;;;;;18.62;94.48;99119.22;6151385;23;20017;-84
2021/08/19 02:04:47;;;;;;;0.10;0.10;;;;;;;18.61;94.68;99120.28;6154592;23;20048;-82
2021/08/19 02:07:13;;;;;;;0.10;0.10;;;;;;;18.63;95.05;99117.31;6126587;23;20398;-81
2021/08/19 02:09:39;;;;;;;0.10;0.10;;;;;;;18.67;94.83;99118.56;6152478;23;20027;-83
2021/08/19 02:12:05;;;;;;;0.10;0.10;;;;;;;18.62;95.08;99123.84;6152151;23;20028;-82
2021/08/19 02:14:31;;;;;;;0.10;0.10;;;;;;;18.65;94.65;99112.44;6150472;23;20105;-85
2021/08/19 02:16:57;;;;;;;0.10;0.10;;;;;;;18.71;94.58;99114.34;6151443;23;20100;-82
2021/08/19 02:19:22;;;;;;;0.10;0.10;;;;;;;18.64;94.35;99113.50;6151395;23;20045;-83
2021/08/19 02:21:48;;;;;;;0.10;0.10;;;;;;;18.61;94.52;99113.94;6153033;23;20022;-83
2021/08/19 02:24:14;;;;;;;0.10;0.10;;;;;;;18.55;95.14;99116.50;6153470;23;20033;-85
2021/08/19 02:26:40;;;;;;;0.10;0.10;;;;;;;18.48;95.16;99125.78;6153018;23;20017;-84
2021/08/19 02:29:05;;;;;;;0.10;0.10;;;;;;;18.44;95.90;99135.50;6153038;23;20028;-82
2021/08/19 02:31:31;;;;;;;0.10;0.10;;;;;;;18.42;95.98;99141.16;6150950;23;20048;-83
2021/08/19 02:33:57;;;;;;;0.10;0.10;;;;;;;18.43;95.66;99133.78;6152485;23;20167;-83
2021/08/19 02:36:23;;;;;;;0.10;0.10;;;;;;;18.46;95.63;99145.16;6150754;23;20490;-83
2021/08/19 02:38:48;;;;;;;0.10;0.10;;;;;;;18.48;95.98;99137.56;6126257;23;20052;-82
2021/08/19 02:41:14;;;;;;;0.10;0.10;;;;;;;18.46;94.80;99139.66;6150864;23;20236;-81
2021/08/19 02:43:43;;;;;;;0.10;0.10;;;;;;;18.52;95.15;99138.81;6155649;23;20024;-85
2021/08/19 02:46:10;;;;;;;0.13;0.13;;;;;;;18.50;95.42;99140.09;6151746;23;20025;-82
2021/08/19 02:48:36;;;;;;;0.20;0.20;;;;;;;18.48;95.05;99139.47;6151528;23;20043;-82
2021/08/19 02:51:02;;;;;;;0.10;0.10;;;;;;;18.48;95.35;99143.03;6152751;23;20029;-85
2021/08/19 02:53:28;;;;;;;0.10;0.10;;;;;;;18.50;95.47;99142.81;6151523;23;20060;-83
2021/08/19 02:55:54;;;;;;;0.10;0.10;;;;;;;18.47;95.26;99140.53;6152704;23;20022;-81
2021/08/19 02:58:20;;;;;;;0.10;0.10;;;;;;;18.53;95.08;99140.50;6152760;23;20033;-83
2021/08/19 03:00:46;;;;;;;0.10;0.10;;;;;;;18.57;95.09;99143.63;6153303;23;20025;-86
2021/08/19 03:03:12;;;;;;;0.10;0.10;;;;;;;18.61;94.84;99146.78;6128876;23;20052;-84
2021/08/19 03:05:38;;;;;;;0.10;0.10;;;;;;;18.66;93.83;99141.53;6152502;23;20408;-82
2021/08/19 03:08:04;;;;;;;0.10;0.10;;;;;;;18.65;94.25;99137.09;6155285;23;20048;-83
2021/08/19 03:10:30;;;;;;;0.10;0.10;;;;;;;18.64;93.97;99130.78;6156244;23;20064;-84
2021/08/19 03:12:56;;;;;;;0.10;0.10;;;;;;;18.65;94.12;99131.59;6153811;23;20096;-84
2021/08/19 03:15:22;;;;;;;0.10;0.10;;;;;;;18.65;94.16;99134.34;6157795;23;20014;-83
2021/08/19 03:17:48;;;;;;;0.17;0.17;;;;;;;18.65;93.70;99137.09;6155569;23;20025;-83
2021/08/19 03:20:14;;;;;;;0.10;0.10;;;;;;;18.76;93.26;99131.81;6152625;23;20160;-86
2021/08/19 03:22:40;;;;;;;0.10;0.10;;;;;;;18.73;93.55;99134.16;6129167;23;20127;-84
2021/08/19 03:25:09;;;;;;;0.10;0.10;;;;;;;18.71;93.25;99130.78;6156223;23;20463;-85
2021/08/19 03:27:36;;;;;;;0.10;0.10;;;;;;;18.70;93.66;99132.66;6104957;23;20595;-83
2021/08/19 03:30:03;;;;;;;0.10;0.10;;;;;;;18.67;93.43;99121.28;6157091;23;20025;-86
2021/08/19 03:32:30;;;;;;;0.10;0.10;;;;;;;18.74;93.51;99124.88;6156856;23;20024;-84
2021/08/19 03:34:55;;;;;;;0.10;0.10;;;;;;;18.74;93.10;99130.34;6132767;23;20025;-84
2021/08/19 03:37:21;;;;;;;0.10;0.10;;;;;;;18.74;93.45;99130.34;6154162;23;20076;-83
2021/08/19 03:39:47;;;;;;;0.10;0.10;;;;;;;18.72;93.54;99126.97;6127497;23;20328;-83
2021/08/19 03:42:13;;;;;;;0.20;0.20;;;;;;;18.89;93.32;99122.69;6155515;23;20410;-83
2021/08/19 03:44:39;;;;;;;0.20;0.20;;;;;;;18.97;92.90;99121.59;6133433;23;20044;-86
2021/08/19 03:47:05;;;;;;;0.20;0.20;;;;;;;19.10;93.01;99123.44;6130831;23;20356;-83
2021/08/19 03:49:31;;;;;;;0.10;0.10;;;;;;;19.24;91.62;99125.06;6153486;23;20025;-83
2021/08/19 03:51:57;;;;;;;0.15;0.15;;;;;;;19.30;90.89;99131.53;6153321;23;20472;-83
2021/08/19 03:54:24;;;;;;;0.10;0.10;;;;;;;19.35;90.37;99126.25;6161323;23;20032;-83
2021/08/19 03:56:50;;;;;;;0.10;0.10;;;;;;;19.52;90.32;99136.47;6159197;23;20470;-84
2021/08/19 03:59:16;;;;;;;0.10;0.10;;;;;;;19.51;89.65;99133.94;6153726;23;20021;-83
2021/08/19 04:01:44;;;;;;;0.20;0.20;;;;;;;19.42;89.60;99133.38;6154745;23;20189;-84
2021/08/19 04:04:10;;;;;;;0.10;0.10;;;;;;;19.33;90.12;99129.19;6155892;23;20025;-85
2021/08/19 04:06:43;;;;;;;0.10;0.10;;;;;;;19.33;90.19;99123.72;6157706;23;20017;-85
2021/08/19 04:09:09;;;;;;;0.10;0.10;;;;;;;19.37;90.51;99119.47;6184324;23;20033;-84
2021/08/19 04:11:35;;;;;;;0.10;0.10;;;;;;;19.43;90.12;99118.59;6159463;23;20084;-86
2021/08/19 04:14:02;;;;;;;0.10;0.10;;;;;;;19.41;90.39;99128.91;6159746;23;20167;-85
2021/08/19 04:16:28;;;;;;;0.10;0.10;;;;;;;19.42;90.12;99119.66;6108612;23;20022;-86
2021/08/19 04:18:54;;;;;;;0.10;0.10;;;;;;;19.39;90.10;99122.84;6139815;23;20021;-85
2021/08/19 04:21:20;;;;;;;0.10;0.10;;;;;;;19.46;90.14;99123.63;6141164;23;20022;-86
2021/08/19 04:23:47;;;;;;;0.10;0.10;;;;;;;19.49;89.60;99122.34;6143301;23;20082;-87
2021/08/19 04:26:14;;;;;;;0.20;0.20;;;;;;;19.58;88.95;99117.44;6118207;23;20437;-86
2021/08/19 04:28:42;;;;;;;0.20;0.20;;;;;;;19.90;88.00;99116.34;6164902;23;20072;-85
2021/08/19 04:31:09;;;;;;;0.20;0.20;;;;;;;20.21;86.57;99131.03;6139058;23;20033;-85
2021/08/19 04:33:36;;;;;;;0.20;0.20;;;;;;;20.34;85.88;99136.41;6140152;23;20056;-86
2021/08/19 04:36:02;;;;;;;0.10;0.10;;;;;;;20.48;85.14;99137.09;6164003;23;20033;-85
2021/08/19 04:38:29;;;;;;;0.20;0.20;;;;;;;20.63;84.42;99136.75;6120684;23;20052;-87
2021/08/19 04:40:56;;;;;;;0.20;0.20;;;;;;;20.77;83.76;99138.28;6167864;23;20021;-86
2021/08/19 04:43:23;;;;;;;0.10;0.10;;;;;;;20.43;83.94;99145.16;6169088;23;20068;-88
2021/08/19 04:45:49;;;;;;;0.10;0.10;;;;;;;20.49;84.15;99144.25;6166317;23;20104;-83
2021/08/19 04:48:17;;;;;;;0.10;0.10;;;;;;;20.51;83.84;99153.13;6140439;23;20020;-84
2021/08/19 04:50:43;;;;;;;0.10;0.10;;;;;;;20.52;84.17;99148.50;6163792;23;20232;-84
2021/08/19 04:53:09;;;;;;;0.20;0.20;;;;;;;20.61;84.07;99142.47;6110289;23;20493;-83
2021/08/19 04:55:35;;;;;;;0.17;0.17;;;;;;;20.77;83.51;99141.03;6161232;23;20022;-85
2021/08/19 04:58:02;;;;;;;0.20;0.20;;;;;;;20.79;82.80;99133.38;6163014;23;20017;-85
2021/08/19 05:00:28;;;;;;;0.20;0.20;;;;;;;20.86;82.68;99134.13;6137183;23;20423;-86
2021/08/19 05:02:55;;;;;;;0.20;0.20;;;;;;;21.21;81.70;99136.22;6111854;23;20045;-85
2021/08/19 05:05:22;;;;;;;0.20;0.20;;;;;;;21.58;80.23;99141.63;6165378;23;20071;-87
2021/08/19 05:07:50;;;;;;;0.20;0.20;;;;;;;21.46;80.23;99132.50;6167045;23;20057;-86
2021/08/19 05:10:16;;;;;;;0.20;0.20;;;;;;;21.61;79.54;99127.38;6162298;23;20025;-87
2021/08/19 05:12:44;;;;;;;0.30;0.30;;;;;;;21.67;78.79;99140.19;6146054;23;20005;-87
2021/08/19 05:15:11;;;;;;;0.20;0.20;;;;;;;21.70;78.80;99138.91;6160875;23;20498;-85
2021/08/19 05:17:38;;;;;;;0.20;0.20;;;;;;;21.87;78.10;99134.38;6167974;23;20017;-87
2021/08/19 05:20:08;;;;;;;0.20;0.20;;;;;;;21.83;77.84;99145.03;6144989;23;20538;-87
2021/08/19 05:22:36;;;;;;;0.20;0.20;;;;;;;21.71;77.99;99146.91;6121160;23;20064;-86
2021/08/19 05:25:04;;;;;;;0.30;0.30;;;;;;;21.67;78.02;99134.69;6157652;23;20021;-88
2021/08/19 05:27:31;;;;;;;0.20;0.20;;;;;;;21.58;78.21;99136.13;6157867;23;20017;-86
2021/08/19 05:29:58;;;;;;;0.40;0.40;;;;;;;21.88;77.08;99147.91;6141235;23;20104;-86
2021/08/19 05:32:25;;;;;;;0.22;0.22;;;;;;;22.45;75.87;99146.50;6170621;23;20026;-87
2021/08/19 05:34:54;;;;;;;0.20;0.20;;;;;;;22.08;76.57;99132.94;6092029;23;20021;-85
2021/08/19 05:37:24;;;;;;;0.30;0.30;;;;;;;22.05;76.32;99136.19;6099083;23;20014;-88
2021/08/19 05:39:52;;;;;;;0.20;0.20;;;;;;;22.33;75.08;99130.81;6120302;23;20050;-87
2021/08/19 05:42:20;;;;;;;0.20;0.20;;;;;;;22.10;75.60;99133.56;6072651;23;20021;-89
2021/08/19 05:44:48;;;;;;;0.10;0.10;;;;;;;21.99;75.87;99137.16;6116327;23;20297;-84
2021/08/19 05:47:17;;;;;;;0.13;0.13;;;;;;;22.00;76.02;99138.81;6092534;23;20026;-86
2021/08/19 05:49:47;;;;;;;0.20;0.20;;;;;;;21.89;76.20;99132.22;6138024;23;20045;-84
2021/08/19 05:52:15;;;;;;;0.20;0.20;;;;;;;21.86;76.91;99128.03;6145959;23;20032;-88
2021/08/19 05:54:46;;;;;;;0.20;0.20;;;;;;;21.89;76.99;99126.72;6122497;23;20025;-85
2021/08/19 05:57:16;;;;;;;0.20;0.20;;;;;;;21.99;77.16;99126.13;6147306;23;20036;-87
2021/08/19 05:59:47;;;;;;;0.20;0.20;;;;;;;22.24;76.37;99132.28;6132617;23;20025;-89
2021/08/19 06:02:18;;;;;;;0.20;0.20;;;;;;;22.19;76.40;99132.13;6152565;23;20033;-86
2021/08/19 06:04:46;;;;;;;0.20;0.20;;;;;;;22.07;77.06;99139.53;6190410;23;20020;31
2021/08/19 06:07:14;;;;;;;0.20;0.20;;;;;;;21.90;77.48;99151.25;6139480;23;20070;-87
2021/08/19 06:09:57;;;;;;;0.20;0.20;;;;;;;22.52;75.17;99138.94;6176333;23;20096;-86
2021/08/19 06:12:25;;;;;;;0.20;0.20;;;;;;;22.71;73.96;99137.72;6207591;23;20094;-84
2021/08/19 06:14:55;;;;;;;0.30;0.30;;;;;;;22.70;73.21;99138.78;6182556;23;20160;-87
2021/08/19 06:17:23;;;;;;;0.80;0.80;;;;;;;22.99;71.67;99141.63;6209388;23;20032;-87
2021/08/19 06:19:52;;;;;;;0.30;0.30;;;;;;;23.69;70.13;99146.84;6208129;23;20020;-87
2021/08/19 06:22:19;;;;;;;0.30;0.30;;;;;;;23.59;70.19;99152.19;6232417;23;20061;-87
2021/08/19 06:24:57;;;;;;;0.10;0.10;;;;;;;23.02;72.17;99153.00;6172511;23;21133;31
2021/08/19 06:27:26;;;;;;;0.10;0.10;;;;;;;22.51;74.13;99156.56;6121428;23;20040;-86
2021/08/19 06:29:54;;;;;;;0.20;0.20;;;;;;;22.16;75.47;99149.16;6109453;23;20100;-86
2021/08/19 06:32:23;;;;;;;0.10;0.10;;;;;;;21.86;76.64;99160.22;6161061;23;20009;-87
2021/08/19 06:34:52;;;;;;;0.10;0.10;;;;;;;21.54;77.75;99160.53;6166071;23;20108;-88
2021/08/19 06:37:20;;;;;;;0.10;0.10;;;;;;;21.49;78.99;99160.34;6127663;23;20049;-85
2021/08/19 06:39:47;;;;;;;0.10;0.10;;;;;;;21.30;79.31;99161.47;6101620;23;20052;-87
2021/08/19 06:42:15;;;;;;;0.10;0.10;;;;;;;21.09;79.85;99160.06;6195107;23;20024;-86
2021/08/19 06:44:44;;;;;;;0.10;0.10;;;;;;;21.07;79.64;99156.72;6143786;23;20080;-87
2021/08/19 06:47:15;;;;;;;;;;;;;;;21.20;79.20;99154.59;6215695;23;20619;-88
2021/08/19 06:49:44;;;;;;;0.10;0.10;;;;;;;21.41;79.12;99163.44;6259191;22;19931;-86
2021/08/19 06:52:11;;;;;;;0.20;0.20;;;;;;;21.55;78.65;99164.09;6263671;23;20084;-86
2021/08/19 06:54:40;;;;;;;0.30;0.30;;;;;;;22.00;76.73;99166.34;6241711;23;20020;-86
2021/08/19 06:57:20;;;;;;;0.80;0.80;;;;;;;23.07;73.46;99166.06;6185972;23;20035;-87
2021/08/19 06:59:48;;;;;;;0.50;0.50;;;;;;;23.98;69.06;99166.13;6204749;23;20040;-86
2021/08/19 07:02:20;;;;;;;0.30;0.30;;;;;;;23.78;68.90;99172.97;6157929;23;20024;-90
2021/08/19 07:04:52;;;;;;;0.40;0.40;;;;;;;23.74;68.85;99163.53;6132808;23;20048;-88
2021/08/19 07:10:11;;;;;;;1.00;1.00;;;;;;;25.87;62.63;99183.31;6167430;23;20006;-91
2021/08/19 07:15:45;;;;;;;0.40;0.40;;;;;;;27.01;57.85;99175.53;6122544;23;20040;-89
2021/08/19 07:30:37;;;;;;;0.20;0.20;;;;;;;24.46;65.71;99170.22;6229684;22;20247;-88
2021/08/19 07:33:08;;;;;;;0.20;0.20;;;;;;;24.14;66.75;99176.34;6122857;23;20054;-87
2021/08/19 07:35:49;;;;;;;0.20;0.20;;;;;;;24.66;64.78;99162.22;6126042;23;20056;-85
2021/08/19 07:38:22;;;;;;;0.28;0.28;;;;;;;24.65;65.32;99160.56;6214523;23;20102;-87
2021/08/19 07:40:52;;;;;;;0.30;0.30;;;;;;;24.54;64.75;99164.28;6123616;23;20009;-87
2021/08/19 07:43:21;;;;;;;0.30;0.30;;;;;;;24.74;64.81;99169.25;6156155;23;20025;-88
2021/08/19 07:46:27;;;;;;;0.88;0.88;;;;;;;26.47;60.66;99175.78;6168651;23;20041;-87
2021/08/19 07:48:58;;;;;;;0.50;0.50;;;;;;;26.54;58.56;99176.38;6106359;23;20036;-87
2021/08/19 07:51:39;;;;;;;0.50;0.50;;;;;;;27.58;55.79;99166.31;6169745;23;20021;-88
2021/08/19 07:54:10;;;;;;;0.80;0.80;;;;;;;27.47;55.90;99169.38;6137324;23;20080;-88
2021/08/19 07:56:46;;;;;;;0.80;0.80;;;;;;;28.45;53.61;99171.97;6175961;23;20052;-89
2021/08/19 07:59:29;;;;;;;0.40;0.40;;;;;;;28.72;52.60;99156.88;6169023;23;20023;-86
2021/08/19 08:01:57;;;;;;;0.98;0.98;;;;;;;29.73;50.03;99160.34;6160710;23;20039;-87
2021/08/19 08:04:29;;;;;;;0.90;0.90;;;;;;;30.52;47.60;99163.88;6160176;23;20024;-88
2021/08/19 08:06:59;;;;;;;;;;;;;;;30.88;46.32;99161.56;6182750;22;20015;-87
2021/08/19 08:09:31;;;;;;;1.00;1.00;;;;;;;32.04;44.48;99159.44;6198768;23;19920;-89
2021/08/19 08:12:00;;;;;;;1.00;1.00;;;;;;;32.26;42.85;99168.00;6159787;23;20024;-88
2021/08/19 08:14:27;;;;;;;0.82;0.82;;;;;;;33.29;42.31;99164.91;6174094;23;20025;-85
2021/08/19 08:16:56;;;;;;;0.40;0.40;;;;;;;32.09;43.72;99153.75;6181732;22;20028;-87
2021/08/19 08:22:05;;;;;;;0.60;0.60;;;;;;;31.75;43.04;99146.44;6129084;23;20030;-87
2021/08/19 08:31:16;;;;;;;0.30;0.30;;;;;;;30.47;46.56;99145.22;6149305;23;20827;31
2021/08/19 08:48:55;;;;;;;;;;;;;;;27.67;54.29;99136.06;6169014;22;20004;-89
2021/08/19 08:51:30;;;;;;;0.10;0.10;;;;;;;26.98;55.93;99134.47;6195142;22;19943;31
2021/08/19 08:57:02;;;;;;;0.10;0.10;;;;;;;26.46;57.75;99135.31;6124692;23;19928;-87
2021/08/19 08:59:35;;;;;;;0.10;0.10;;;;;;;25.95;58.94;99132.16;6186742;22;20042;-86
2021/08/19 09:17:25;;;;;;;0.20;0.20;;;;;;;25.71;59.22;99128.88;6124017;23;20029;31
2021/08/19 09:26:27;;;;;;;0.20;0.20;;;;;;;27.15;56.25;99112.91;6189617;23;20230;-88
2021/08/19 09:32:22;;;;;;;0.20;0.20;;;;;;;27.96;53.57;99102.22;6202816;23;20028;-88
2021/08/19 09:34:51;;;;;;;0.20;0.20;;;;;;;28.01;52.94;99108.59;6190290;23;20005;-85
2021/08/19 09:40:34;;;;;;;0.20;0.20;;;;;;;27.97;53.18;99104.69;6152518;23;20065;-89
2021/08/19 09:43:10;;;;;;;0.20;0.20;;;;;;;27.67;54.05;99107.44;6152134;23;20005;-87
2021/08/19 09:45:46;;;;;;;0.20;0.20;;;;;;;27.85;53.40;99112.50;6130572;23;20005;-86
2021/08/19 09:48:17;;;;;;;0.30;0.30;;;;;;;28.51;51.93;99109.66;6161195;23;20039;-86
2021/08/19 10:28:22;;;;;;;0.15;0.15;;;;;;;28.34;50.63;99098.00;6206814;22;20025;-84
2021/08/19 10:31:00;;;;;;;0.20;0.20;;;;;;;28.30;51.65;99105.22;6169477;22;20040;-86
2021/08/19 10:51:44;;;;;;;0.30;0.30;;;;;;;30.97;45.19;99120.69;6156744;22;20226;-87
2021/08/19 11:25:05;;;;;;;0.70;0.70;;;;;;;32.11;42.89;99109.53;6168322;23;20020;-87
2021/08/19 11:27:33;;;;;;;0.40;0.40;;;;;;;32.66;41.53;99109.66;6129343;23;20032;-89
2021/08/19 11:40:05;;;;;;;0.10;0.10;;;;;;;31.81;42.31;99105.25;6151966;23;21124;31
2021/08/19 12:05:51;;;;;;;0.30;0.30;;;;;;;28.55;49.24;99087.66;6150125;23;20016;31
2021/08/19 12:08:36;;;;;;;0.20;0.20;;;;;;;28.07;50.19;99093.56;6107183;23;20025;31
2021/08/19 12:17:10;;;;;;;;;;;;;;;28.90;48.56;99089.47;6152074;23;20013;-84
2021/08/19 12:33:07;;;;;;;0.30;0.30;;;;;;;28.34;50.46;99120.25;6146279;23;20104;-88
2021/08/19 12:35:36;;;;;;;0.30;0.30;;;;;;;28.63;50.41;99111.28;6162231;23;20034;-86
2021/08/19 12:45:08;;;;;;;0.20;0.20;;;;;;;27.87;52.36;99115.84;6192462;23;20029;-87
2021/08/19 12:48:09;;;;;;;0.20;0.20;;;;;;;28.25;51.09;99119.13;6138735;23;20883;-86
2021/08/19 12:51:06;;;;;;;0.20;0.20;;;;;;;28.49;50.68;99111.06;6208717;22;20009;31
2021/08/19 12:59:56;;;;;;;0.10;0.10;;;;;;;27.34;53.11;99101.28;5676393;22;10932165;-85
2021/08/19 13:02:29;;;;;;;0.10;0.10;;;;;;;27.36;53.88;99099.09;6122719;23;20031;-87
2021/08/19 13:04:59;;;;;;;0.10;0.10;;;;;;;27.27;53.58;99104.34;6138601;23;20064;-86
2021/08/19 13:07:30;;;;;;;0.10;0.10;;;;;;;27.40;53.24;99100.22;6185815;23;20036;-88
2021/08/19 14:29:58;;;;;;;0.10;0.10;;;;;;;24.69;60.56;99078.78;6184461;22;20356;-85
2021/08/19 15:13:21;;;;;;;0.10;0.10;;;;;;;24.76;60.30;99090.50;6184189;23;20019;-84
2021/08/19 15:19:09;;;;;;;0.10;0.10;;;;;;;24.62;60.67;99077.31;6137102;23;19935;-89
2021/08/19 15:21:44;;;;;;;0.10;0.10;;;;;;;24.63;61.08;99073.44;6186807;23;20009;-87
2021/08/19 15:33:59;;;;;;;0.10;0.10;;;;;;;24.40;61.75;99086.41;6183533;23;20016;-87
2021/08/19 15:46:32;;;;;;;0.10;0.10;;;;;;;24.24;62.83;99090.88;6178289;22;20005;-82
2021/08/19 16:17:10;;;;;;;0.10;0.10;;;;;;;23.48;66.05;99137.34;6193950;23;20063;-87
2021/08/19 16:23:10;;;;;;;0.10;0.10;;;;;;;23.33;66.10;99143.44;6203700;23;20028;-90
2021/08/19 16:35:00;;;;;;;0.10;0.10;;;;;;;23.04;63.35;99150.84;6129003;23;20029;31
2021/08/19 21:19:07;;;;;;;0.10;0.10;;;;;;;19.29;66.41;99248.56;6097748;23;20502;-81
2021/08/19 21:21:34;;;;;;;0.10;0.10;;;;;;;19.27;66.66;99245.22;6113512;23;20125;-81
2021/08/19 21:24:00;;;;;;;0.10;0.10;;;;;;;19.28;66.87;99252.38;6066201;23;20022;-80
2021/08/19 21:26:26;;;;;;;0.10;0.10;;;;;;;19.23;67.82;99250.28;6090913;23;20027;-82
2021/08/19 21:28:52;;;;;;;0.10;0.10;;;;;;;19.25;67.49;99256.38;6091181;23;20019;-80
2021/08/19 21:31:18;;;;;;;0.10;0.10;;;;;;;19.18;68.71;99254.72;6065523;23;20023;-82
2021/08/19 21:33:44;;;;;;;0.10;0.10;;;;;;;19.14;67.89;99256.22;6042446;23;20038;-77
2021/08/19 21:36:10;;;;;;;0.10;0.10;;;;;;;19.13;67.62;99255.38;6069459;23;20038;-80
2021/08/19 21:38:36;;;;;;;0.10;0.10;;;;;;;19.17;67.29;99274.97;6066887;23;20046;-81
2021/08/19 21:41:02;;;;;;;0.10;0.10;;;;;;;19.07;67.25;99282.78;6067431;23;20090;-81
2021/08/19 21:43:28;;;;;;;0.10;0.10;;;;;;;19.13;67.16;99279.19;6094000;23;20018;-81
2021/08/19 21:45:54;;;;;;;0.10;0.10;;;;;;;19.14;66.42;99278.13;6067408;23;20029;-79
2021/08/19 21:48:20;;;;;;;0.10;0.10;;;;;;;19.13;66.63;99282.78;6090787;23;20093;-79
2021/08/19 21:50:46;;;;;;;0.10;0.10;;;;;;;19.14;66.17;99283.63;6121328;23;20027;-77
2021/08/19 21:53:12;;;;;;;0.10;0.10;;;;;;;19.00;66.64;99286.38;6069359;23;20045;-79
2021/08/19 21:55:38;;;;;;;0.10;0.10;;;;;;;19.01;66.52;99288.09;6064698;23;20018;-82
2021/08/19 21:58:04;;;;;;;0.10;0.10;;;;;;;18.92;66.40;99297.59;6046203;23;20034;-81
2021/08/19 22:00:30;;;;;;;0.10;0.10;;;;;;;18.87;65.67;99293.81;6094028;23;20442;-80
2021/08/19 22:02:56;;;;;;;0.10;0.10;;;;;;;18.86;66.26;99292.94;6069622;23;20029;-79
2021/08/19 22:05:22;;;;;;;0.10;0.10;;;;;;;18.76;65.76;99293.41;6119335;23;20046;-78
2021/08/19 22:07:48;;;;;;;0.10;0.10;;;;;;;18.75;66.20;99299.91;6070967;23;20022;-80
2021/08/19 22:10:14;;;;;;;0.10;0.10;;;;;;;18.77;66.70;99307.94;6094773;23;20018;-80
2021/08/19 22:12:41;;;;;;;0.10;0.10;;;;;;;18.72;67.25;99319.53;6095043;23;20401;-78
2021/08/19 22:15:09;;;;;;;0.10;0.10;;;;;;;18.69;68.54;99319.09;6071638;23;20019;-79
2021/08/19 22:17:35;;;;;;;0.10;0.10;;;;;;;18.71;67.25;99311.50;6085356;23;20025;-79
2021/08/19 22:20:01;;;;;;;0.10;0.10;;;;;;;18.73;66.65;99314.91;6077103;23;20121;-81
2021/08/19 22:22:27;;;;;;;0.10;0.10;;;;;;;18.77;67.13;99314.25;6098870;23;20031;-79
2021/08/19 22:24:53;;;;;;;0.10;0.10;;;;;;;18.77;65.08;99310.69;6122530;23;20362;-78
2021/08/19 22:27:19;;;;;;;0.10;0.10;;;;;;;18.78;65.33;99304.13;6072831;23;20033;-79
2021/08/19 22:29:47;;;;;;;0.10;0.10;;;;;;;18.77;64.61;99305.19;6117830;23;20019;-80
2021/08/19 22:32:17;;;;;;;0.10;0.10;;;;;;;18.70;64.45;99293.38;6117547;23;20033;-80
2021/08/19 22:34:44;;;;;;;0.10;0.10;;;;;;;18.71;64.93;99290.44;6095094;23;20114;-78
2021/08/19 22:37:10;;;;;;;0.10;0.10;;;;;;;18.67;63.40;99283.69;6094142;23;20029;-78
2021/08/19 22:39:36;;;;;;;0.10;0.10;;;;;;;18.60;63.54;99287.47;6115933;23;20506;-76
2021/08/19 22:42:02;;;;;;;0.10;0.10;;;;;;;18.55;63.67;99283.50;6095302;23;20342;-80
2021/08/19 22:44:27;;;;;;;0.10;0.10;;;;;;;18.57;64.12;99286.00;6093406;23;20018;-77
2021/08/19 22:46:53;;;;;;;0.10;0.10;;;;;;;18.51;63.95;99284.13;6094200;23;20036;-78
2021/08/19 22:49:19;;;;;;;0.10;0.10;;;;;;;18.51;63.16;99284.97;6068431;23;20074;-79
2021/08/19 22:51:45;;;;;;;0.10;0.10;;;;;;;18.48;63.77;99295.50;6093632;23;20026;-76
2021/08/19 22:54:11;;;;;;;0.10;0.10;;;;;;;18.38;63.50;99301.38;6095107;23;20067;-76
2021/08/19 22:56:37;;;;;;;0.10;0.10;;;;;;;18.34;64.32;99305.59;6096066;23;20151;-77
2021/08/19 22:59:03;;;;;;;0.10;0.10;;;;;;;18.38;63.41;99306.03;6071749;23;20448;-83
2021/08/19 23:01:29;;;;;;;0.10;0.10;;;;;;;18.38;63.85;99298.66;6074817;23;20026;-81
2021/08/19 23:03:55;;;;;;;0.10;0.10;;;;;;;18.40;63.31;99299.28;6075952;23;20022;-77
2021/08/19 23:06:24;;;;;;;0.10;0.10;;;;;;;18.36;64.72;99298.03;6099816;23;20102;-81
2021/08/19 23:08:50;;;;;;;0.10;0.10;;;;;;;18.40;65.02;99298.47;6121106;23;20018;-79
2021/08/19 23:11:18;;;;;;;0.10;0.10;;;;;;;18.33;64.36;99286.66;6117882;23;20033;-79